Flight Track Log - Related Links

Times and Time Zones

All times are in EST time to prevent confusion due to time zone crossing. See the UCA3598 flight status page for this flight to view local times or setup timezone preferences in your user account.

Time Position Orientation Groundspeed Altitude Reporting Facility
EST Latitude Longitude Course Direction KTS MPH feet Rate Location/Type
Tue 10:40:43 PM 38.9833 -77.5167 North 145 167 2,800  Level Potomac TRACON
Tue 10:41:43 PM 39.0167 -77.5333 339° North 155 178 4,200 1,550 Climbing Potomac TRACON
Tue 10:42:43 PM 39.0500 -77.5667 322° Northwest 148 170 5,900 1,650 Climbing Potomac TRACON
Tue 10:43:43 PM 39.0833 -77.5833 339° North 152 175 7,500 1,600 Climbing Potomac TRACON
Tue 10:44:00 PM 39.4121 -77.2581 North  Level Estimated
Tue 10:44:43 PM 39.1333 -77.5667 14° North 160 184 9,100  Level Potomac TRACON
Tue 10:45:00 PM 39.4895 -77.2242 North  Level Estimated
Tue 10:45:43 PM 39.1833 -77.5667 360° North 172 198 10,500  Level Potomac TRACON
Tue 10:47:44 PM 39.2750 -77.5381 14° North 183 211 13,300 1,359 Climbing Washington Center
Tue 10:48:44 PM 39.3231 -77.5286 North 183 211 14,600 1,271 Climbing Washington Center
Tue 10:49:42 PM 39.3753 -77.5167 10° North 183 211 15,800 763 Climbing Washington Center
Tue 10:50:42 PM 39.4275 -77.5044 10° North 183 211 16,100 667 Climbing Washington Center
Tue 10:52:33 PM 39.5389 -77.4800 10° North 205 236 17,700 776 Climbing New York Center
Tue 10:53:32 PM 39.5983 -77.4614 14° North 205 236 18,300 655 Climbing New York Center
Tue 10:54:32 PM 39.6636 -77.4514 North 210 242 19,000 350 Climbing New York Center
Tue 10:55:32 PM 39.7178 -77.4539 358° North 210 242 19,000  Level New York Center
Tue 10:56:32 PM 39.7911 -77.4447 North 232 267 19,000  Level New York Center
Tue 10:57:32 PM 39.8494 -77.4097 25° Northeast 248 285 19,000  Level New York Center
Tue 10:58:32 PM 39.9225 -77.3706 22° Northeast 254 292 19,000  Level New York Center
Tue 10:59:32 PM 39.9850 -77.3383 22° Northeast 259 298 19,000  Level New York Center
Tue 11:00:32 PM 40.0581 -77.2992 22° Northeast 259 298 19,000  Level New York Center
Tue 11:01:32 PM 40.1181 -77.2669 22° Northeast 259 298 19,000  Level New York Center
Tue 11:02:32 PM 40.1933 -77.2250 23° Northeast 259 298 19,000  Level New York Center
Tue 11:03:32 PM 40.2533 -77.1950 21° North 259 298 19,000  Level New York Center
Tue 11:04:32 PM 40.3308 -77.1533 22° Northeast 259 298 19,000  Level New York Center
Tue 11:05:32 PM 40.3908 -77.1206 23° Northeast 259 298 19,000  Level New York Center
Tue 11:06:32 PM 40.4658 -77.0811 22° Northeast 265 305 19,000  Level New York Center
Tue 11:07:32 PM 40.5283 -77.0458 23° Northeast 265 305 19,000 -100 Level New York Center
Tue 11:08:32 PM 40.6033 -77.0064 22° Northeast 265 305 18,800 -300 Descending New York Center
Tue 11:09:32 PM 40.6678 -76.9683 24° Northeast 265 305 18,400 -500 Descending New York Center
Tue 11:10:32 PM 40.7450 -76.9261 22° Northeast 265 305 17,800 -350 Descending New York Center
Tue 11:11:32 PM 40.8092 -76.8933 21° North 270 311 17,700 -400 Descending New York Center
Tue 11:12:32 PM 40.8864 -76.8508 23° Northeast 265 305 17,000 -600 Descending New York Center
Tue 11:13:32 PM 40.9572 -76.8133 22° Northeast 270 311 16,500 -550 Descending New York Center
Tue 11:14:32 PM 41.0281 -76.7728 23° Northeast 270 311 15,900 -600 Descending New York Center
Tue 11:15:32 PM 41.0986 -76.7350 22° Northeast 270 311 15,300 -600 Descending New York Center
Tue 11:16:32 PM 41.1672 -76.6969 23° Northeast 270 311 14,700 -600 Descending New York Center
Tue 11:17:32 PM 41.2317 -76.6583 24° Northeast 270 311 14,100 -650 Descending New York Center
Tue 11:18:32 PM 41.3067 -76.6153 23° Northeast 264 304 13,400 -500 Descending New York Center
Tue 11:19:32 PM 41.3731 -76.5794 22° Northeast 259 298 13,100 -150 Descending New York Center
Tue 11:20:32 PM 41.4394 -76.5436 22° Northeast 259 298 13,100  Level New York Center
Tue 11:21:32 PM 41.4953 -76.5097 24° Northeast 249 287 13,100 -300 Level New York Center
Tue 11:22:32 PM 41.5572 -76.4733 24° Northeast 244 281 12,500 -800 Descending New York Center
Tue 11:23:32 PM 41.6319 -76.4353 21° North 244 281 11,500 -1,000 Descending New York Center
Tue 11:24:32 PM 41.6983 -76.3994 22° Northeast 254 292 10,500 -900 Descending New York Center
Tue 11:25:32 PM 41.7647 -76.3606 24° Northeast 259 298 9,700 -750 Descending New York Center
Tue 11:26:32 PM 41.8247 -76.3264 23° Northeast 253 291 9,000 -700 Descending New York Center
Tue 11:27:32 PM 41.8953 -76.2850 24° Northeast 247 284 8,300 -900 Descending New York Center
Tue 11:28:32 PM 41.9342 -76.2075 56° Northeast 241 277 7,200 -1,150 Descending New York Center
Tue 11:29:32 PM 41.9469 -76.1136 80° East 246 283 6,000 -1,050 Descending New York Center
Tue 11:30:32 PM 41.9506 -76.0275 87° East 246 283 5,100 -900 Descending New York Center
Tue 11:31:32 PM 41.9569 -75.9331 85° East 256 295 4,200 -550 Descending New York Center
Tue 11:32:32 PM 41.9697 -75.8311 80° East 249 287 4,000 -100 Descending New York Center
Tue 11:33:32 PM 42.0117 -75.8203 11° North 158 182 4,000  Level New York Center
Tue 11:34:32 PM 42.0481 -75.8481 330° Northwest 135 155 4,000 -50 Level New York Center
Tue 11:35:32 PM 42.0822 -75.8758 329° Northwest 140 161 3,900 -100 Descending New York Center
Tue 11:36:32 PM 42.1103 -75.9006 327° Northwest 133 153 3,800 -350 Descending New York Center
Tue 11:37:32 PM 42.1364 -75.9222 328° Northwest 122 140 3,200 -600 Descending New York Center
Tue 11:39:00 PM 42.2084 -75.9796 310° West  Level Estimated
Tue 11:46:00 PM 42.2084 -75.9796 North  Level Estimated
Tue 11:47:00 PM 42.2084 -75.9796 North  Level Estimated
Tue 11:48:00 PM 42.2084 -75.9796 North  Level Estimated
Tue 11:49:00 PM 42.2084 -75.9796 North  Level Estimated
Tue 11:50:00 PM 42.2084 -75.9796 North  Level Estimated
Tue 11:51:00 PM 42.2084 -75.9796 North  Level Estimated

Login

Don't have an account? Register now (free) for customized features, flight alerts, and more!